Time;durP1;ratioP1;P1;durP2;ratioP2;P2;SDS_P1;SDS_P2;PMS_P1;PMS_P2;Temp;Humidity;BMP_temperature;BMP_pressure;BME280_temperature;BME280_humidity;BME280_pressure;Samples;Min_cycle;Max_cycle;Signal;HPM_P1;HPM_P2
2023/08/23 00:00:55;;;;;;;10.13;6.25;;;16.00;99.90;;;;;;5077023;28;20220;-75
2023/08/23 00:03:21;;;;;;;11.63;7.00;;;15.90;99.90;;;;;;5075404;28;20181;-75
2023/08/23 00:05:46;;;;;;;9.30;6.55;;;15.90;99.90;;;;;;5077010;28;20640;-75
2023/08/23 00:08:12;;;;;;;9.82;7.65;;;15.90;99.90;;;;;;5076768;28;20205;-75
2023/08/23 00:10:38;;;;;;;10.88;8.02;;;15.90;99.90;;;;;;5076678;28;20190;-74
2023/08/23 00:13:04;;;;;;;11.50;6.70;;;15.80;99.90;;;;;;5076662;28;20177;-75
2023/08/23 00:15:29;;;;;;;14.85;7.22;;;15.90;99.90;;;;;;5076560;28;20209;-75
2023/08/23 00:17:55;;;;;;;9.23;6.25;;;15.80;99.90;;;;;;5075172;28;20251;-75
2023/08/23 00:20:21;;;;;;;8.57;5.97;;;15.70;99.90;;;;;;5075171;28;20225;-75
2023/08/23 00:22:46;;;;;;;7.82;6.30;;;15.70;99.90;;;;;;5076247;28;20166;-75
2023/08/23 00:25:12;;;;;;;8.93;6.10;;;15.50;99.90;;;;;;5076266;28;20197;-75
2023/08/23 00:27:38;;;;;;;9.45;6.30;;;15.50;99.90;;;;;;5076250;28;20206;-75
2023/08/23 00:30:04;;;;;;;8.82;6.97;;;15.50;99.90;;;;;;5074975;28;20182;-75
2023/08/23 00:32:30;;;;;;;14.13;8.63;;;15.50;99.90;;;;;;5076127;28;20216;-75
2023/08/23 00:34:56;;;;;;;12.98;8.35;;;15.50;99.90;;;;;;5074821;28;20202;-74
2023/08/23 00:37:21;;;;;;;11.75;7.47;;;15.50;99.90;;;;;;5074910;28;20209;-74
2023/08/23 00:39:47;;;;;;;10.48;7.20;;;15.60;99.90;;;;;;5074811;28;20173;-74
2023/08/23 00:42:13;;;;;;;9.30;7.18;;;15.60;99.90;;;;;;5076010;28;20186;-75
2023/08/23 00:44:39;;;;;;;12.85;7.80;;;15.50;99.90;;;;;;5076023;28;20253;-74
2023/08/23 00:47:04;;;;;;;11.57;7.97;;;15.50;99.90;;;;;;5074185;28;20633;-75
2023/08/23 00:49:34;;;;;;;11.15;7.88;;;15.50;99.90;;;;;;5076014;28;20178;-75
2023/08/23 00:52:01;;;;;;;12.88;9.60;;;15.50;99.90;;;;;;5075604;28;20193;-74
2023/08/23 00:54:27;;;;;;;12.63;9.57;;;15.50;99.90;;;;;;5076138;28;20257;-75
2023/08/23 00:56:55;;;;;;;10.85;8.07;;;15.40;99.90;;;;;;5074278;28;20629;-75
2023/08/23 00:59:21;;;;;;;13.15;8.18;;;15.30;99.90;;;;;;5074371;28;20282;-75
2023/08/23 01:01:48;;;;;;;9.93;7.60;;;15.30;99.90;;;;;;5074286;28;20208;-75
2023/08/23 01:04:14;;;;;;;11.57;8.18;;;15.20;99.90;;;;;;5075997;28;20531;-74
2023/08/23 01:07:13;;;;;;;9.52;6.97;;;15.20;99.90;;;;;;5074208;28;20199;-75
2023/08/23 01:10:04;;;;;;;8.30;6.70;;;15.20;99.90;;;;;;5064594;28;20178;-75
2023/08/23 01:12:39;;;;;;;8.18;6.32;;;15.30;99.90;;;;;;5074380;28;20634;-74
2023/08/23 01:15:12;;;;;;;9.65;6.82;;;15.20;99.90;;;;;;5075499;28;20160;-74
2023/08/23 01:17:42;;;;;;;12.80;6.93;;;15.20;99.90;;;;;;5073937;28;20328;-74
2023/08/23 01:20:13;;;;;;;11.60;6.70;;;15.20;99.90;;;;;;5074010;28;20178;-74
2023/08/23 01:22:45;;;;;;;9.73;8.07;;;15.20;99.90;;;;;;5075072;28;20212;-75
2023/08/23 01:25:13;;;;;;;11.85;8.70;;;15.10;99.90;;;;;;5074077;28;20184;-75
2023/08/23 01:27:38;;;;;;;12.20;9.00;;;15.10;99.90;;;;;;5075966;28;20496;-75
2023/08/23 01:30:05;;;;;;;10.02;8.20;;;15.10;99.90;;;;;;5075064;28;20232;-75
2023/08/23 01:32:46;;;;;;;11.80;10.50;;;15.10;99.90;;;;;;5075040;28;20235;-75
2023/08/23 01:35:19;;;;;;;10.68;9.57;;;15.10;99.90;;;;;;5073855;28;20205;-75
2023/08/23 01:37:52;;;;;;;10.70;9.60;;;15.00;99.90;;;;;;5074673;28;20185;-74
2023/08/23 01:40:18;;;;;;;13.18;10.65;;;15.00;99.90;;;;;;5075095;28;20181;-75
2023/08/23 01:42:46;;;;;;;11.63;10.07;;;14.90;99.90;;;;;;5074889;28;20233;-75
2023/08/23 01:45:12;;;;;;;10.80;8.77;;;14.90;99.90;;;;;;5075199;28;20254;-75
2023/08/23 01:47:38;;;;;;;11.65;9.90;;;14.70;99.90;;;;;;5074742;28;20315;-75
2023/08/23 01:50:04;;;;;;;12.38;9.18;;;14.70;99.90;;;;;;5074559;28;20579;-75
2023/08/23 01:52:30;;;;;;;10.93;9.77;;;14.70;99.90;;;;;;5072994;28;20647;-75
2023/08/23 01:54:57;;;;;;;10.43;8.90;;;14.60;99.90;;;;;;5074874;28;20193;-75
2023/08/23 01:57:22;;;;;;;10.93;9.70;;;14.60;99.90;;;;;;5073426;28;20212;-75
2023/08/23 01:59:50;;;;;;;10.18;8.55;;;14.60;99.90;;;;;;5073108;28;20543;-75
2023/08/23 02:02:16;;;;;;;9.90;8.90;;;14.70;99.90;;;;;;5073018;28;20213;-75
2023/08/23 02:04:42;;;;;;;10.68;9.13;;;14.70;99.90;;;;;;5074614;28;20207;-75
2023/08/23 02:07:08;;;;;;;8.70;7.80;;;14.70;99.90;;;;;;5074312;28;20292;-75
2023/08/23 02:09:33;;;;;;;8.07;7.18;;;14.70;99.90;;;;;;5074276;28;20180;-74
2023/08/23 02:11:59;;;;;;;9.10;7.93;;;14.70;99.90;;;;;;5072883;28;20202;-75
2023/08/23 02:14:25;;;;;;;7.85;7.05;;;14.70;99.90;;;;;;5074180;28;20177;-75
2023/08/23 02:16:51;;;;;;;12.63;7.28;;;14.60;99.90;;;;;;5074294;28;20224;-75
2023/08/23 02:19:17;;;;;;;6.80;6.10;;;14.60;99.90;;;;;;5074354;28;20196;-74
2023/08/23 02:21:43;;;;;;;8.80;5.90;;;14.50;99.90;;;;;;5073953;28;20736;-75
2023/08/23 02:24:08;;;;;;;7.75;6.15;;;14.40;99.90;;;;;;5074397;28;20170;-74
2023/08/23 02:26:37;;;;;;;10.05;7.78;;;14.50;99.90;;;;;;5074788;28;20169;-75
2023/08/23 02:29:03;;;;;;;12.73;10.45;;;14.50;99.90;;;;;;5072725;28;20550;-74
2023/08/23 02:31:29;;;;;;;12.38;9.80;;;14.50;99.90;;;;;;5074033;28;20193;-75
2023/08/23 02:33:55;;;;;;;8.73;7.70;;;14.40;99.90;;;;;;5072747;28;20185;-75
2023/08/23 02:36:21;;;;;;;9.45;7.50;;;14.30;99.90;;;;;;5072812;28;20166;-75
2023/08/23 02:38:47;;;;;;;9.82;7.80;;;14.20;99.90;;;;;;5074319;28;20197;-75
2023/08/23 02:41:12;;;;;;;6.88;5.75;;;14.30;99.90;;;;;;5072598;28;20200;-74
2023/08/23 02:43:38;;;;;;;11.18;7.13;;;14.20;99.90;;;;;;5074005;28;20253;-75
2023/08/23 02:46:04;;;;;;;9.48;7.57;;;14.10;99.90;;;;;;5072654;28;20270;-75
2023/08/23 02:48:30;;;;;;;10.65;8.75;;;14.10;99.90;;;;;;5073890;28;20184;-74
2023/08/23 02:50:56;;;;;;;10.98;9.48;;;14.20;99.90;;;;;;5072466;28;20331;-74
2023/08/23 02:53:22;;;;;;;12.00;9.10;;;14.00;99.90;;;;;;5073714;28;20170;-75
2023/08/23 02:55:47;;;;;;;11.00;9.00;;;14.10;99.90;;;;;;5072534;28;20205;-75
2023/08/23 02:58:13;;;;;;;14.13;8.88;;;14.10;99.90;;;;;;5073658;28;20272;-75
2023/08/23 03:00:39;;;;;;;9.65;8.65;;;14.00;99.90;;;;;;5074255;28;20662;-75
2023/08/23 03:03:05;;;;;;;12.20;9.05;;;14.00;99.90;;;;;;5074139;28;20186;-74
2023/08/23 03:05:31;;;;;;;10.68;8.88;;;14.10;99.90;;;;;;5072512;28;20177;-74
2023/08/23 03:07:57;;;;;;;11.63;9.10;;;14.10;99.90;;;;;;5073580;28;20170;-75
2023/08/23 03:10:22;;;;;;;10.75;9.65;;;14.10;99.90;;;;;;5073815;28;20634;-75
2023/08/23 03:12:48;;;;;;;13.55;9.70;;;14.20;99.90;;;;;;5072538;28;20185;-74
2023/08/23 03:15:14;;;;;;;11.80;9.65;;;14.20;99.90;;;;;;5073523;28;20166;-74
2023/08/23 03:17:40;;;;;;;12.48;10.27;;;14.20;99.90;;;;;;5072302;28;20681;-74
2023/08/23 03:20:06;;;;;;;10.82;9.73;;;14.20;99.90;;;;;;5073470;28;20174;-74
2023/08/23 03:22:32;;;;;;;12.30;10.05;;;14.20;99.90;;;;;;5072335;28;20196;-74
2023/08/23 03:24:58;;;;;;;10.60;8.85;;;14.10;99.90;;;;;;5073540;28;20170;-74
2023/08/23 03:27:24;;;;;;;8.73;7.75;;;14.10;99.90;;;;;;5073948;28;20260;-74
2023/08/23 03:29:51;;;;;;;10.63;8.20;;;14.10;99.90;;;;;;5072928;28;20188;-75
2023/08/23 03:32:17;;;;;;;9.35;8.13;;;14.00;99.90;;;;;;5075048;28;20213;-75
2023/08/23 03:34:43;;;;;;;10.02;7.80;;;14.00;99.90;;;;;;5074403;28;20178;-74
2023/08/23 03:37:09;;;;;;;10.88;8.95;;;14.10;99.90;;;;;;5073936;28;20561;-74
2023/08/23 03:39:35;;;;;;;10.85;8.38;;;14.10;99.90;;;;;;5072649;28;20184;-74
2023/08/23 03:42:01;;;;;;;10.60;8.82;;;14.10;99.90;;;;;;5073742;28;20193;-74
2023/08/23 03:44:26;;;;;;;10.40;9.15;;;14.10;99.90;;;;;;5074220;28;20239;-74
2023/08/23 03:46:52;;;;;;;11.73;9.40;;;14.10;99.90;;;;;;5073319;28;20185;-74
2023/08/23 03:49:18;;;;;;;11.25;8.68;;;14.10;99.90;;;;;;5072167;28;20200;-74
2023/08/23 03:51:43;;;;;;;12.75;9.68;;;14.10;99.90;;;;;;5073214;28;20213;-74
2023/08/23 03:54:11;;;;;;;9.90;8.05;;;14.00;99.90;;;;;;5073376;28;20170;-75
2023/08/23 03:56:37;;;;;;;11.38;9.20;;;13.90;99.90;;;;;;5073227;28;20190;-74
2023/08/23 03:59:03;;;;;;;10.32;7.60;;;13.90;99.90;;;;;;5073394;28;20193;-74
2023/08/23 04:01:28;;;;;;;10.73;7.50;;;13.80;99.90;;;;;;5073039;28;20213;-74
2023/08/23 04:03:54;;;;;;;10.02;7.50;;;13.80;99.90;;;;;;5073246;28;20174;-74
2023/08/23 04:06:20;;;;;;;10.60;8.15;;;13.80;99.90;;;;;;5073468;28;20174;-74
2023/08/23 04:08:45;;;;;;;16.98;11.60;;;13.70;99.90;;;;;;5071487;28;20178;-74
2023/08/23 04:11:11;;;;;;;16.45;10.38;;;13.80;99.90;;;;;;5071633;28;20204;-74
2023/08/23 04:13:37;;;;;;;12.27;10.52;;;13.80;99.90;;;;;;5071778;28;20192;-74
2023/08/23 04:16:03;;;;;;;10.98;9.48;;;13.90;99.90;;;;;;5071672;28;20177;-74
2023/08/23 04:18:29;;;;;;;11.52;9.80;;;13.80;99.90;;;;;;5071570;28;20545;-74
2023/08/23 04:20:59;;;;;;;10.52;9.43;;;13.90;99.90;;;;;;5073984;28;20196;-74
2023/08/23 04:23:25;;;;;;;10.75;9.35;;;14.00;99.90;;;;;;5076478;28;20181;-74
2023/08/23 04:25:51;;;;;;;14.80;9.85;;;13.90;99.90;;;;;;5075184;28;20638;-74
2023/08/23 04:28:16;;;;;;;16.17;10.10;;;13.90;99.90;;;;;;5076612;28;20261;-74
2023/08/23 04:30:42;;;;;;;16.13;10.23;;;13.90;99.90;;;;;;5076565;28;20201;-75
2023/08/23 04:33:10;;;;;;;18.52;11.60;;;13.80;99.90;;;;;;5076244;28;20193;-74
2023/08/23 04:35:36;;;;;;;17.92;11.93;;;13.80;99.90;;;;;;5076108;28;20170;-75
2023/08/23 04:38:02;;;;;;;14.07;10.93;;;13.80;99.90;;;;;;5075967;28;20556;-74
2023/08/23 04:40:28;;;;;;;13.55;10.82;;;13.80;99.90;;;;;;5076110;28;20209;-74
2023/08/23 04:42:53;;;;;;;13.90;10.57;;;13.90;99.90;;;;;;5076049;28;20271;-74
2023/08/23 04:45:19;;;;;;;12.82;10.35;;;13.80;99.90;;;;;;5076747;28;20296;-77
2023/08/23 04:47:45;;;;;;;14.35;10.73;;;13.90;99.90;;;;;;5076636;28;20646;-77
2023/08/23 04:50:11;;;;;;;13.38;10.88;;;13.90;99.90;;;;;;5076227;28;20174;-77
2023/08/23 04:52:37;;;;;;;13.68;10.95;;;13.90;99.90;;;;;;5074846;28;20182;-77
2023/08/23 04:55:04;;;;;;;11.88;10.10;;;13.90;99.90;;;;;;5074923;28;20177;-77
2023/08/23 04:57:30;;;;;;;13.55;10.95;;;13.90;99.90;;;;;;5074925;28;20217;-77
2023/08/23 04:59:56;;;;;;;13.35;11.95;;;13.90;99.90;;;;;;5074939;28;20687;-77
2023/08/23 05:02:21;;;;;;;15.63;10.35;;;13.80;99.90;;;;;;5074571;28;20251;-77
2023/08/23 05:04:47;;;;;;;11.68;9.30;;;13.80;99.90;;;;;;5074357;28;20247;-77
2023/08/23 05:07:13;;;;;;;13.02;9.07;;;13.70;99.90;;;;;;5074068;28;20177;-77
2023/08/23 05:09:39;;;;;;;13.20;9.13;;;13.80;99.90;;;;;;5076151;28;20171;-77
2023/08/23 05:12:05;;;;;;;12.05;9.32;;;13.70;99.90;;;;;;5074221;28;20726;-77
2023/08/23 05:14:31;;;;;;;10.80;8.85;;;13.70;99.90;;;;;;5074040;28;20181;-77
2023/08/23 05:16:56;;;;;;;12.27;8.93;;;13.70;99.90;;;;;;5075215;28;20656;-77
2023/08/23 05:19:22;;;;;;;10.23;8.30;;;13.80;99.90;;;;;;5080813;28;20246;-77
2023/08/23 05:21:49;;;;;;;9.48;8.27;;;13.80;99.90;;;;;;5074995;28;20202;-77
2023/08/23 05:24:15;;;;;;;10.77;8.35;;;13.90;99.90;;;;;;5074371;28;20178;-77
2023/08/23 05:26:41;;;;;;;11.95;7.93;;;14.00;99.90;;;;;;5074423;28;20630;-77
2023/08/23 05:29:06;;;;;;;10.65;8.50;;;14.00;99.90;;;;;;5075763;28;20188;-77
2023/08/23 05:31:32;;;;;;;11.68;9.20;;;14.10;99.90;;;;;;5075935;28;20202;-77
2023/08/23 05:33:58;;;;;;;10.88;8.30;;;14.00;99.90;;;;;;5075705;28;20224;-77
2023/08/23 05:36:24;;;;;;;9.30;8.30;;;14.00;99.90;;;;;;5074017;28;20505;-77
2023/08/23 05:38:50;;;;;;;11.70;8.82;;;14.00;99.90;;;;;;5073524;28;20197;-77
2023/08/23 05:41:16;;;;;;;11.07;8.27;;;14.00;99.90;;;;;;5075396;28;20189;-77
2023/08/23 05:43:42;;;;;;;8.98;8.05;;;14.10;99.90;;;;;;5074073;28;20177;-77
2023/08/23 05:46:08;;;;;;;11.05;8.32;;;14.10;99.90;;;;;;5074081;28;20180;-77
2023/08/23 05:48:35;;;;;;;11.10;8.32;;;14.20;99.90;;;;;;5074056;28;20264;-77
2023/08/23 05:51:02;;;;;;;11.25;8.48;;;14.40;99.90;;;;;;5075505;28;20193;-77
2023/08/23 05:53:28;;;;;;;9.23;8.02;;;14.50;99.90;;;;;;5073532;28;20186;-77
2023/08/23 05:55:54;;;;;;;11.82;9.40;;;14.60;99.90;;;;;;5073666;28;20189;-77
2023/08/23 05:58:20;;;;;;;10.50;9.00;;;14.70;99.90;;;;;;5074721;28;20197;-77
2023/08/23 06:00:47;;;;;;;18.75;12.13;;;14.70;99.90;;;;;;5074065;28;20193;-77
2023/08/23 06:03:16;;;;;;;15.20;9.77;;;14.90;99.90;;;;;;5091564;28;20185;-77
2023/08/23 06:05:43;;;;;;;15.57;10.00;;;15.00;99.90;;;;;;5095533;28;20250;-77
2023/08/23 06:08:09;;;;;;;21.15;12.13;;;15.10;99.90;;;;;;5093715;28;20181;-77
2023/08/23 06:10:35;;;;;;;17.63;12.55;;;15.10;99.90;;;;;;5095006;28;20215;-76
2023/08/23 06:13:01;;;;;;;17.83;12.68;;;15.20;99.90;;;;;;5093935;28;20272;-76
2023/08/23 06:15:27;;;;;;;17.77;13.13;;;15.30;99.90;;;;;;5094967;28;20614;-76
2023/08/23 06:17:54;;;;;;;21.08;13.40;;;15.30;99.90;;;;;;5094891;28;20204;-76
2023/08/23 06:20:20;;;;;;;19.83;12.52;;;15.40;99.90;;;;;;5093439;28;20176;-76
2023/08/23 06:22:47;;;;;;;16.90;12.38;;;15.50;99.90;;;;;;5093152;28;20264;-74
2023/08/23 06:25:13;;;;;;;14.90;10.70;;;15.60;99.90;;;;;;5094695;28;20209;-74
2023/08/23 06:27:38;;;;;;;15.93;11.70;;;15.70;99.90;;;;;;5094245;28;20580;-74
2023/08/23 06:30:05;;;;;;;17.05;11.68;;;15.80;99.90;;;;;;5094334;28;20264;-74
2023/08/23 06:32:31;;;;;;;15.88;11.30;;;15.90;99.90;;;;;;5094496;28;20185;-74
2023/08/23 06:34:57;;;;;;;13.00;9.25;;;16.10;99.90;;;;;;5094922;28;20736;-74
2023/08/23 06:37:23;;;;;;;14.80;11.18;;;16.20;99.90;;;;;;5094373;28;20647;-74
2023/08/23 06:39:49;;;;;;;19.33;11.30;;;16.40;99.90;;;;;;5094784;28;20506;-74
2023/08/23 06:42:17;;;;;;;14.35;11.82;;;16.50;99.90;;;;;;5094478;28;20196;-74
2023/08/23 06:44:43;;;;;;;19.42;12.00;;;16.60;99.90;;;;;;5093808;28;20173;-74
2023/08/23 06:47:09;;;;;;;17.42;11.75;;;16.70;99.90;;;;;;5093004;28;20657;-74
2023/08/23 06:49:35;;;;;;;17.60;12.15;;;16.70;99.90;;;;;;5094211;28;20172;-74
2023/08/23 06:52:01;;;;;;;18.77;12.23;;;16.60;99.90;;;;;;5092648;28;20734;-74
2023/08/23 06:54:27;;;;;;;23.92;11.60;;;16.60;99.90;;;;;;5094774;28;20201;-74
2023/08/23 06:56:53;;;;;;;21.00;12.25;;;16.70;99.90;;;;;;5092550;28;20196;-74
2023/08/23 06:59:18;;;;;;;17.77;12.57;;;16.70;99.90;;;;;;5094349;28;20218;-74
2023/08/23 07:01:45;;;;;;;17.30;12.57;;;16.80;99.90;;;;;;5092847;28;20689;-74
2023/08/23 07:04:11;;;;;;;17.70;11.77;;;16.70;99.90;;;;;;5092921;28;20188;-74
2023/08/23 07:06:37;;;;;;;18.00;11.90;;;16.80;99.90;;;;;;5094430;28;20173;-74
2023/08/23 07:09:03;;;;;;;19.25;11.45;;;16.80;99.90;;;;;;5094125;28;20203;-74
2023/08/23 07:11:29;;;;;;;20.83;11.85;;;16.90;99.90;;;;;;5093960;28;20200;-74
2023/08/23 07:13:55;;;;;;;18.95;12.57;;;16.90;99.90;;;;;;5094967;28;20169;-74
2023/08/23 07:16:20;;;;;;;18.77;12.57;;;16.90;99.90;;;;;;5093172;28;20181;-74
2023/08/23 07:18:46;;;;;;;16.65;11.98;;;17.00;99.90;;;;;;5094290;28;20215;-74
2023/08/23 07:21:12;;;;;;;17.80;12.80;;;17.10;99.90;;;;;;5094265;28;20222;-74
2023/08/23 07:23:38;;;;;;;16.15;11.45;;;17.10;99.90;;;;;;5093572;28;20183;-74
2023/08/23 07:26:04;;;;;;;16.75;11.93;;;17.10;99.90;;;;;;5094429;28;20227;-74
2023/08/23 07:28:30;;;;;;;14.98;12.43;;;17.20;99.90;;;;;;5093975;28;20537;-74
2023/08/23 07:30:59;;;;;;;16.27;10.95;;;17.30;99.90;;;;;;5094246;28;20196;-74
2023/08/23 07:33:27;;;;;;;16.60;11.82;;;17.50;99.90;;;;;;5094162;28;20177;-74
2023/08/23 07:35:58;;;;;;;15.38;11.02;;;17.70;99.90;;;;;;5094195;28;20197;-74
2023/08/23 07:38:24;;;;;;;15.32;11.07;;;17.80;99.90;;;;;;5094105;28;20192;-74
2023/08/23 07:40:50;;;;;;;20.13;10.63;;;18.00;99.90;;;;;;5092172;28;20204;-74
2023/08/23 07:43:16;;;;;;;14.27;9.73;;;18.00;99.90;;;;;;5093504;28;20165;-74
2023/08/23 07:45:41;;;;;;;17.33;10.63;;;18.10;99.90;;;;;;5094316;28;20174;-73
2023/08/23 07:48:07;;;;;;;16.20;10.43;;;18.10;99.90;;;;;;5094157;28;20169;-73
2023/08/23 07:50:34;;;;;;;16.35;10.60;;;18.20;99.90;;;;;;5094067;28;20194;-73
2023/08/23 07:53:00;;;;;;;19.25;11.43;;;18.20;99.90;;;;;;5093982;28;20178;-73
2023/08/23 07:55:25;;;;;;;21.27;11.18;;;18.20;99.90;;;;;;5093189;28;20651;-74
2023/08/23 07:57:51;;;;;;;16.17;11.38;;;18.20;99.90;;;;;;5100506;28;20200;-73
2023/08/23 08:00:18;;;;;;;15.55;10.63;;;18.30;99.90;;;;;;5101622;28;20173;-73
2023/08/23 08:02:44;;;;;;;21.83;11.38;;;18.40;99.90;;;;;;5085722;28;20177;-73
2023/08/23 08:05:09;;;;;;;15.70;10.98;;;18.50;99.90;;;;;;5077582;28;20180;-73
2023/08/23 08:07:35;;;;;;;13.43;9.85;;;18.60;99.90;;;;;;5075571;28;20177;-73
2023/08/23 08:10:01;;;;;;;17.85;10.43;;;18.70;99.90;;;;;;5077123;28;20236;-73
2023/08/23 08:12:26;;;;;;;18.13;10.13;;;18.70;99.90;;;;;;5077295;28;20178;-73
2023/08/23 08:14:52;;;;;;;17.20;9.43;;;18.80;99.90;;;;;;5077161;28;20177;-73
2023/08/23 08:17:18;;;;;;;13.35;9.07;;;19.00;99.90;;;;;;5075447;28;20228;-73
2023/08/23 08:19:44;;;;;;;18.40;10.23;;;19.20;99.90;;;;;;5076779;28;20241;-73
2023/08/23 08:22:10;;;;;;;15.20;9.45;;;19.30;99.90;;;;;;5076742;28;20674;-73
2023/08/23 08:24:36;;;;;;;13.85;9.35;;;19.40;99.90;;;;;;5077287;28;20569;-73
2023/08/23 08:27:02;;;;;;;14.07;8.95;;;19.50;99.90;;;;;;5075218;28;20650;-73
2023/08/23 08:29:28;;;;;;;12.60;8.27;;;19.70;99.90;;;;;;5076450;28;20219;-73
2023/08/23 08:31:54;;;;;;;11.18;7.70;;;19.90;99.90;;;;;;5075067;28;20209;-73
2023/08/23 08:34:19;;;;;;;16.63;7.28;;;20.30;99.90;;;;;;5075318;28;20170;-73
2023/08/23 08:36:45;;;;;;;14.07;7.82;;;20.50;99.90;;;;;;5076358;28;20170;-73
2023/08/23 08:39:11;;;;;;;8.52;6.40;;;20.70;99.90;;;;;;5076217;28;20186;-73
2023/08/23 08:41:37;;;;;;;8.82;6.22;;;21.00;99.90;;;;;;5075106;28;20243;-73
2023/08/23 08:44:07;;;;;;;11.50;6.88;;;21.10;99.90;;;;;;5076533;28;20174;-73
2023/08/23 08:46:33;;;;;;;13.27;7.00;;;21.20;99.90;;;;;;5076694;28;20189;-73
2023/08/23 08:48:59;;;;;;;11.10;6.10;;;21.70;99.90;;;;;;5076083;28;20634;-72
2023/08/23 08:51:26;;;;;;;9.35;5.88;;;21.90;99.90;;;;;;5076105;28;20213;-73
2023/08/23 08:53:53;;;;;;;10.43;6.50;;;22.10;99.90;;;;;;5075952;28;20227;-72
2023/08/23 08:56:20;;;;;;;13.15;6.22;;;22.10;99.90;;;;;;5076021;28;20182;-72
2023/08/23 08:58:47;;;;;;;12.43;5.47;;;22.20;99.90;;;;;;5076116;28;20672;-73
2023/08/23 09:01:17;;;;;;;9.63;4.85;;;22.60;99.90;;;;;;5075801;28;20198;-73
2023/08/23 09:03:44;;;;;;;13.13;5.68;;;22.50;18.10;;;;;;5076264;28;20206;-72
2023/08/23 09:06:09;;;;;;;11.15;5.55;;;22.70;99.90;;;;;;5076334;28;20174;-73
2023/08/23 09:08:35;;;;;;;7.18;3.92;;;23.00;99.90;;;;;;5076087;28;20249;-73
2023/08/23 09:11:01;;;;;;;12.27;3.83;;;23.30;14.60;;;;;;5076573;28;20209;-73
2023/08/23 09:13:27;;;;;;;6.63;3.63;;;23.50;99.90;;;;;;5075898;28;20170;-73
2023/08/23 09:15:53;;;;;;;5.72;3.60;;;23.40;1.00;;;;;;5074597;28;20182;-73
2023/08/23 09:18:21;;;;;;;11.73;5.35;;;23.60;19.90;;;;;;5075942;28;20194;-73
2023/08/23 09:20:47;;;;;;;7.93;4.38;;;23.70;18.70;;;;;;5074295;28;20288;-73
2023/08/23 09:23:13;;;;;;;9.63;3.85;;;24.00;1.00;;;;;;5075595;28;20201;-73
2023/08/23 09:25:39;;;;;;;7.13;4.40;;;24.10;1.00;;;;;;5074194;28;20170;-73
2023/08/23 09:28:04;;;;;;;7.97;3.70;;;23.80;99.90;;;;;;5075946;28;20224;-73
2023/08/23 09:30:34;;;;;;;7.40;3.90;;;23.90;1.00;;;;;;5075596;28;20215;-73
2023/08/23 09:33:00;;;;;;;9.95;4.35;;;24.10;1.00;;;;;;5075308;28;20634;-73
2023/08/23 09:35:27;;;;;;;7.45;4.15;;;24.00;1.00;;;;;;5075884;28;20178;-72
2023/08/23 09:37:53;;;;;;;9.55;4.40;;;23.90;1.00;;;;;;5075007;28;20565;-73
2023/08/23 09:40:20;;;;;;;9.02;3.90;;;23.90;1.00;;;;;;5073951;28;20170;-73
2023/08/23 09:42:46;;;;;;;8.93;4.28;;;23.90;1.00;;;;;;5075129;28;20650;-73
2023/08/23 09:45:17;;;;;;;9.32;4.65;;;24.00;1.00;;;;;;5075576;28;20177;-72
2023/08/23 09:47:53;;;;;;;13.45;5.47;;;24.20;1.00;;;;;;5075068;28;20275;-72
2023/08/23 09:50:24;;;;;;;9.73;4.43;;;24.10;99.90;;;;;;5073892;28;20732;-73
2023/08/23 09:53:12;;;;;;;9.65;4.32;;;24.10;1.00;;;;;;5074620;28;20169;-73
2023/08/23 09:55:39;;;;;;;8.15;4.78;;;24.30;1.00;;;;;;5074579;28;20289;-73
2023/08/23 09:58:06;;;;;;;11.77;5.82;;;24.40;1.00;;;;;;5074958;28;20239;-72
2023/08/23 10:00:33;;;;;;;8.70;5.00;;;24.40;1.00;;;;;;5074917;28;20189;-73
2023/08/23 10:02:59;;;;;;;9.93;5.15;;;24.50;1.00;;;;;;5075546;28;20174;-72
2023/08/23 10:05:26;;;;;;;10.13;4.70;;;24.60;1.00;;;;;;5075624;28;20560;-73
2023/08/23 10:07:54;;;;;;;8.77;4.50;;;24.60;1.00;;;;;;5075318;28;20181;-73
2023/08/23 10:10:20;;;;;;;11.90;5.57;;;24.70;99.90;;;;;;5073636;28;20201;-73
2023/08/23 10:12:49;;;;;;;8.30;4.95;;;24.70;1.00;;;;;;5074116;28;20181;-73
2023/08/23 10:15:18;;;;;;;10.55;4.95;;;24.70;1.00;;;;;;5074889;28;20626;-72
2023/08/23 10:17:48;;;;;;;12.10;5.03;;;24.80;1.00;;;;;;5073265;28;20556;-73
2023/08/23 10:20:14;;;;;;;11.23;5.38;;;25.00;1.00;;;;;;5073953;28;20170;-72
2023/08/23 10:22:40;;;;;;;8.00;5.22;;;24.80;99.90;;;;;;5074305;28;20177;-72
2023/08/23 10:25:17;;;;;;;7.00;4.78;;;24.60;99.90;;;;;;5073050;28;20173;-72
2023/08/23 10:27:46;;;;;;;8.35;4.30;;;24.60;99.90;;;;;;5074219;28;20178;-72
2023/08/23 10:30:23;;;;;;;7.50;4.15;;;24.50;99.90;;;;;;5074442;28;20172;-73
2023/08/23 10:32:49;;;;;;;11.85;4.72;;;24.50;1.00;;;;;;5074335;28;20181;-73
2023/08/23 10:35:33;;;;;;;10.80;4.57;;;24.60;1.00;;;;;;5074248;28;20184;-72
2023/08/23 10:38:00;;;;;;;8.70;4.85;;;24.40;99.90;;;;;;5074495;28;20192;-73
2023/08/23 10:40:30;;;;;;;11.52;5.13;;;24.50;1.00;;;;;;5074193;28;20198;-73
2023/08/23 10:42:56;;;;;;;11.50;5.10;;;24.30;99.90;;;;;;5074593;28;20169;-73
2023/08/23 10:45:22;;;;;;;8.98;4.88;;;24.00;1.00;;;;;;5074804;28;20170;-73
2023/08/23 10:47:50;;;;;;;7.78;4.97;;;23.90;1.00;;;;;;5074151;28;20201;-73
2023/08/23 10:50:17;;;;;;;12.00;5.00;;;23.90;1.00;;;;;;5073943;28;20197;-73
2023/08/23 10:52:43;;;;;;;11.13;4.93;;;24.10;1.00;;;;;;5073751;28;20162;-73
2023/08/23 10:55:09;;;;;;;10.00;4.72;;;24.30;1.00;;;;;;5074136;28;20691;-73
2023/08/23 10:57:35;;;;;;;11.70;4.65;;;24.40;1.00;;;;;;5073632;28;20704;-73
2023/08/23 11:00:02;;;;;;;7.18;4.10;;;24.40;99.90;;;;;;5074257;28;20165;-73
2023/08/23 11:02:30;;;;;;;9.85;4.68;;;24.50;99.90;;;;;;5073841;28;20184;-73
2023/08/23 11:04:56;;;;;;;8.40;4.38;;;24.90;1.00;;;;;;5074391;28;20496;-73
2023/08/23 11:07:26;;;;;;;6.75;3.65;;;24.90;99.90;;;;;;5074167;28;20253;-73
2023/08/23 11:09:52;;;;;;;7.78;4.65;;;24.70;99.90;;;;;;5073547;28;20197;-72
2023/08/23 11:12:18;;;;;;;5.82;3.47;;;24.70;99.90;;;;;;5074018;28;20185;-73
2023/08/23 11:14:44;;;;;;;5.50;3.55;;;24.90;1.00;;;;;;5074180;28;20219;-73
2023/08/23 11:17:11;;;;;;;7.13;3.55;;;25.20;99.90;;;;;;5073356;28;20204;-73
2023/08/23 11:19:41;;;;;;;8.32;3.95;;;25.10;99.90;;;;;;5073633;28;20165;-73
2023/08/23 11:22:07;;;;;;;8.50;3.22;;;25.20;99.90;;;;;;5073255;28;20236;-73
2023/08/23 11:24:38;;;;;;;9.43;3.95;;;25.40;99.90;;;;;;5073126;28;20569;-73
2023/08/23 11:27:10;;;;;;;6.10;2.90;;;25.40;99.90;;;;;;5071938;28;20173;-72
2023/08/23 11:29:36;;;;;;;5.72;2.55;;;25.40;99.90;;;;;;5074285;28;20173;-72
2023/08/23 11:32:02;;;;;;;6.70;3.00;;;25.30;1.00;;;;;;5077187;28;20697;-72
2023/08/23 11:34:28;;;;;;;6.15;2.83;;;25.40;1.00;;;;;;5075922;28;20174;-73
2023/08/23 11:36:53;;;;;;;4.05;2.83;;;25.70;61.10;;;;;;5075894;28;20547;-73
2023/08/23 11:39:19;;;;;;;4.80;2.42;;;25.90;58.70;;;;;;5077296;28;20169;-73
2023/08/23 11:41:48;;;;;;;5.82;2.85;;;26.00;51.60;;;;;;5077172;28;20193;-73
2023/08/23 11:44:14;;;;;;;6.07;3.13;;;26.10;27.70;;;;;;5077111;28;20224;-73
2023/08/23 11:46:40;;;;;;;4.80;2.90;;;26.30;6.40;;;;;;5075607;28;20697;-72
2023/08/23 11:49:07;;;;;;;5.00;2.88;;;26.40;29.30;;;;;;5077145;28;20166;-73
2023/08/23 11:51:50;;;;;;;4.88;2.80;;;26.40;99.90;;;;;;5076701;28;20560;-73
2023/08/23 11:54:17;;;;;;;8.23;2.78;;;26.40;99.90;;;;;;5076784;28;20166;-73
2023/08/23 11:56:44;;;;;;;8.95;3.17;;;26.60;99.90;;;;;;5076820;28;20269;-72
2023/08/23 11:59:12;;;;;;;4.93;3.03;;;26.50;99.90;;;;;;5076593;28;20761;-73
2023/08/23 12:01:38;;;;;;;6.13;3.00;;;26.40;99.90;;;;;;5076488;28;20214;-72
2023/08/23 12:04:08;;;;;;;7.38;2.70;;;26.20;99.90;;;;;;5075287;28;20173;-72
2023/08/23 12:06:34;;;;;;;6.78;2.85;;;26.00;99.90;;;;;;5076425;28;20174;-73
2023/08/23 12:08:59;;;;;;;8.70;2.92;;;26.10;99.90;;;;;;5076128;28;20652;-73
2023/08/23 12:11:25;;;;;;;6.82;3.05;;;26.10;99.90;;;;;;5076363;28;20587;-73
2023/08/23 12:13:51;;;;;;;4.80;3.03;;;26.30;99.90;;;;;;5076631;28;20166;-72
2023/08/23 12:16:17;;;;;;;7.60;2.90;;;26.50;99.90;;;;;;5076299;28;20173;-72
2023/08/23 12:18:46;;;;;;;8.63;3.72;;;26.60;99.90;;;;;;5076524;28;20208;-72
2023/08/23 12:21:12;;;;;;;7.45;3.33;;;26.60;52.60;;;;;;5076408;28;20205;-72
2023/08/23 12:23:37;;;;;;;5.78;2.95;;;26.80;99.90;;;;;;5075954;28;20198;-73
2023/08/23 12:26:03;;;;;;;10.00;2.92;;;26.70;99.90;;;;;;5076389;28;20608;-73
2023/08/23 12:28:29;;;;;;;5.68;3.03;;;26.70;99.90;;;;;;5076039;28;20231;-73
2023/08/23 12:30:55;;;;;;;4.60;2.70;;;26.90;99.90;;;;;;5076010;28;20264;-72
2023/08/23 12:33:21;;;;;;;4.78;2.88;;;26.80;99.90;;;;;;5074760;28;20284;-72
2023/08/23 12:35:47;;;;;;;7.50;2.88;;;27.00;99.90;;;;;;5076474;28;20224;-73